createdAt,value
2022-09-25T00:14:49.655Z,24.99
2022-09-25T00:29:51.917Z,24.75
2022-09-25T00:44:54.157Z,24.34
2022-09-25T00:59:56.365Z,23.66
2022-09-25T01:14:58.626Z,23.26
2022-09-25T01:30:00.868Z,23.21
2022-09-25T01:45:03.113Z,22.07
2022-09-25T02:00:05.359Z,21.27
2022-09-25T02:15:07.706Z,20.28
2022-09-25T02:30:09.943Z,21.11
2022-09-25T02:45:12.163Z,19.88
2022-09-25T03:00:14.481Z,19.32
2022-09-25T03:15:16.776Z,19.09
2022-09-25T03:30:19.040Z,18.62
2022-09-25T03:45:21.280Z,18.11
2022-09-25T04:00:23.533Z,17.63
2022-09-25T04:15:25.752Z,17.13
2022-09-25T04:30:27.953Z,16.97
2022-09-25T04:45:30.184Z,17.04
2022-09-25T05:00:32.405Z,16.81
2022-09-25T05:15:34.674Z,16.44
2022-09-25T05:30:36.890Z,15.6
2022-09-25T05:45:39.113Z,16.31
2022-09-25T06:00:41.320Z,15.62
2022-09-25T06:15:43.663Z,16.12
2022-09-25T06:30:46.113Z,15.78
2022-09-25T06:45:48.510Z,15.43
2022-09-25T07:00:51.134Z,14.55
2022-09-25T07:15:53.461Z,15.47
2022-09-25T07:30:55.856Z,14.81
2022-09-25T07:45:58.277Z,14.94
2022-09-25T08:01:00.786Z,14.48
2022-09-25T08:16:03.178Z,14.54
2022-09-25T08:31:05.612Z,13.82
2022-09-25T08:46:07.973Z,13.62
2022-09-25T09:01:10.414Z,13.61
2022-09-25T09:16:12.960Z,13.9
2022-09-25T09:31:15.465Z,13.38
2022-09-25T09:46:17.996Z,13.36
2022-09-25T10:01:40.297Z,13.47
2022-09-25T10:16:43.638Z,13.16
2022-09-25T10:31:45.947Z,13.18
2022-09-25T10:46:48.218Z,12.75
2022-09-25T11:01:50.698Z,12.78
2022-09-25T11:16:53.209Z,12.47
2022-09-25T11:31:55.693Z,12.68
2022-09-25T11:46:58.017Z,12.73
2022-09-25T12:02:00.375Z,12.49
2022-09-25T12:17:02.710Z,12.35
2022-09-25T12:32:04.980Z,11.31
2022-09-25T12:47:07.339Z,11.58
2022-09-25T13:02:09.667Z,11.96
2022-09-25T13:17:11.991Z,11.95
2022-09-25T13:32:14.283Z,11.85
2022-09-25T13:47:16.631Z,11.89
2022-09-25T14:02:19.021Z,11.83
2022-09-25T14:17:21.350Z,11.88
2022-09-25T14:32:50.712Z,11.91
2022-09-25T14:47:56.769Z,16.14
2022-09-25T15:02:59.128Z,13.93
2022-09-25T15:18:01.687Z,13.55
2022-09-25T15:33:03.958Z,14.22
2022-09-25T15:48:06.199Z,15.38
2022-09-25T16:03:08.578Z,26.68
2022-09-25T16:18:10.959Z,23.74
2022-09-25T16:33:13.263Z,32.72
2022-09-25T16:48:15.560Z,21.93
2022-09-25T17:03:17.866Z,19.07
2022-09-25T17:18:20.192Z,19.37
2022-09-25T17:33:22.521Z,25.64
2022-09-25T17:48:24.863Z,28.51
2022-09-25T18:03:27.159Z,25.98
2022-09-25T18:18:29.449Z,22.95
2022-09-25T18:33:31.758Z,23.12
2022-09-25T18:48:34.060Z,22.81
2022-09-25T19:03:40.717Z,22.89
2022-09-25T19:18:43.639Z,22.92
2022-09-25T19:33:45.920Z,23.6
2022-09-25T19:48:48.277Z,24.72
2022-09-25T20:03:50.567Z,25.91
2022-09-25T20:18:52.884Z,27.05
2022-09-25T20:33:55.255Z,26.71
2022-09-25T20:48:57.666Z,26.71
2022-09-25T21:03:59.942Z,27.29
2022-09-25T21:19:02.393Z,25.68
2022-09-25T21:34:04.700Z,26.6
2022-09-25T21:49:06.992Z,26.9
2022-09-25T22:04:09.504Z,28.03
2022-09-25T22:19:11.891Z,27.91
2022-09-25T22:34:14.281Z,28.37
2022-09-25T22:49:16.533Z,28.32
2022-09-25T23:04:18.838Z,28.1
2022-09-25T23:19:21.154Z,28.71
2022-09-25T23:34:23.672Z,28.08
2022-09-25T23:49:25.968Z,27.79
